Pontiac, Indiana
Current Conditions -  °F | °C
As of 8:55 AM on Friday 24 Oct 2014 (Local Time) from K4I7 Reporting Station
Moderate Rain Moderate Rain  
Wind Chill: 45°   Ceiling: 1500
Heat Index: 45°   Visibility: 2mi
Dew Point: 43°   Wind: 0mph
Humidity: 93%   Direction: NA
Pressure: 30.12"   Gusts: NA
Location:  39.5774°N, 87.0605°W
Report Text: K4I7 241255Z AUTO 00000KT 2SM RA BKN015 OVC022 07/06 A3012 RMK AO2 P0009
Loading
Personal Weather Stations






























Interactive Weather Map
Tropical Storm Tracking
New forecast layout! Learn more

10-Day Weather Forecast

Advertisements
Track Severe Weather on mobile